Hauptseite
METAR-TAF:

METAR-TAF

Flughäfen :

Flughafen Pembrey

Pembrey, Wales

Breite: 51-43N, Länge: 004-22W, Höhe: 3 m

Beobachtung

Neuester Wetterbericht von vor 1 Stunde und 20 Minuten, um 08:50 UTC
Wind 5 kt aus Nord
Temperatur 18°C
Luftfeuchtigkeit 73%
Luftdruck 1036 hPa
Sichtweite 10 km oder mehr

METAR: EGOP 270850Z AUTO 36005KT 9999 // OVC035/// 18/13 Q1036

Zeit: 11:10 (10:10 UTC)


TAF: fehlend

Wetterbeobachtungen und Prognosen von mehr als 4000 Flughäfen (METAR und TAF Bericht).

Die verfügbaren Stationen werden durch gelbe und rote Markierungen auf der Karte dargestellt.

Führen Sie die Maus auf sie, um den Namen der Station zu sehen.

Darauf klicken, um die Beobachtung von Wetterbeobachtungen und Prognosen zu sehen.

Um die Karte zu ändern : klicken Sie auf den grünen Tasten mit einem schwarzen Kreuz Zum Vergrößern, auf den grünen Button mit einem Gedankenstrich zu verkleinern, oder auf die grünen Pfeile für benachbarte Karten.


METAR-TAF: